createdAt,value
2022-11-26T00:02:21.336Z,6.80
2022-11-26T00:04:48.127Z,6.80
2022-11-26T00:07:15.859Z,6.80
2022-11-26T00:09:42.456Z,6.80
2022-11-26T00:12:19.294Z,6.80
2022-11-26T00:14:47.179Z,6.80
2022-11-26T00:17:16.581Z,6.90
2022-11-26T00:19:43.380Z,6.90
2022-11-26T00:22:21.815Z,6.90
2022-11-26T00:24:48.382Z,6.90
2022-11-26T00:27:14.948Z,6.80
2022-11-26T00:29:41.509Z,6.80
2022-11-26T00:32:15.111Z,6.80
2022-11-26T00:34:41.843Z,6.80
2022-11-26T00:37:28.675Z,6.80
2022-11-26T00:39:55.590Z,6.80
2022-11-26T00:42:22.123Z,6.80
2022-11-26T00:44:48.707Z,6.80
2022-11-26T00:47:15.244Z,6.80
2022-11-26T00:49:41.794Z,6.80
2022-11-26T00:52:27.190Z,6.70
2022-11-26T00:54:53.744Z,6.70
2022-11-26T00:57:20.290Z,6.80
2022-11-26T00:59:46.830Z,6.80
2022-11-26T01:02:13.383Z,6.80
2022-11-26T01:04:40.161Z,6.80
2022-11-26T01:07:08.639Z,6.80
2022-11-26T01:09:35.239Z,6.80
2022-11-26T01:12:01.784Z,6.70
2022-11-26T01:14:28.334Z,6.60
2022-11-26T01:16:55.183Z,6.50
2022-11-26T01:19:21.806Z,6.40
2022-11-26T01:21:48.331Z,6.40
2022-11-26T01:24:14.878Z,6.40
2022-11-26T01:26:42.288Z,6.40
2022-11-26T01:29:18.270Z,6.40
2022-11-26T01:31:44.925Z,6.50
2022-11-26T01:34:11.724Z,6.50
2022-11-26T01:36:38.920Z,6.60
2022-11-26T01:39:05.444Z,6.60
2022-11-26T01:41:38.098Z,6.60
2022-11-26T01:44:04.661Z,6.70
2022-11-26T01:46:31.208Z,6.70
2022-11-26T01:49:16.551Z,6.70
2022-11-26T01:51:43.137Z,6.60
2022-11-26T01:54:09.687Z,6.60
2022-11-26T01:56:40.679Z,6.60
2022-11-26T01:59:08.778Z,6.60
2022-11-26T02:01:35.408Z,6.50
2022-11-26T02:04:10.250Z,6.50
2022-11-26T02:06:36.798Z,6.50
2022-11-26T02:09:04.450Z,6.40
2022-11-26T02:11:31.143Z,6.40
2022-11-26T02:13:59.089Z,6.30
2022-11-26T02:16:44.164Z,6.20
2022-11-26T02:19:23.423Z,6.20
2022-11-26T02:21:52.577Z,6.10
2022-11-26T02:24:31.319Z,6.10
2022-11-26T02:27:21.211Z,6.10
2022-11-26T02:30:00.808Z,6.10
2022-11-26T02:32:35.457Z,5.90
2022-11-26T02:35:02.436Z,5.90
2022-11-26T02:37:34.167Z,5.90
2022-11-26T02:40:00.724Z,5.90
2022-11-26T02:42:31.453Z,5.90
2022-11-26T02:45:04.973Z,5.90
2022-11-26T02:47:31.559Z,5.90
2022-11-26T02:49:58.836Z,5.90
2022-11-26T02:52:25.391Z,5.90
2022-11-26T02:54:51.951Z,5.90
2022-11-26T02:57:18.732Z,5.90
2022-11-26T02:59:45.303Z,5.80
2022-11-26T03:02:14.862Z,5.80
2022-11-26T03:04:43.079Z,5.80
2022-11-26T03:07:09.773Z,5.80
2022-11-26T03:09:43.234Z,5.80
2022-11-26T03:12:09.973Z,5.70
2022-11-26T03:14:36.910Z,5.70
2022-11-26T03:17:03.712Z,5.70
2022-11-26T03:19:30.272Z,5.60
2022-11-26T03:21:56.821Z,5.70
2022-11-26T03:24:23.375Z,5.80
2022-11-26T03:26:49.919Z,5.80
2022-11-26T03:29:16.473Z,5.90
2022-11-26T03:31:43.151Z,5.90
2022-11-26T03:34:09.781Z,5.90
2022-11-26T03:36:36.311Z,5.90
2022-11-26T03:39:02.977Z,5.90
2022-11-26T03:41:29.551Z,5.80
2022-11-26T03:43:56.108Z,5.70
2022-11-26T03:46:22.685Z,5.70
2022-11-26T03:48:49.239Z,5.50
2022-11-26T03:51:15.903Z,5.50
2022-11-26T03:53:42.437Z,5.50
2022-11-26T03:56:09.036Z,5.50
2022-11-26T03:58:35.583Z,5.60
2022-11-26T04:01:06.984Z,5.60
2022-11-26T04:03:33.627Z,5.60
2022-11-26T04:06:00.215Z,5.60
2022-11-26T04:08:26.767Z,5.60
2022-11-26T04:10:53.323Z,5.60
2022-11-26T04:13:20.042Z,5.60
2022-11-26T04:15:47.488Z,5.70
2022-11-26T04:18:14.117Z,5.60
2022-11-26T04:20:40.675Z,5.70
2022-11-26T04:23:07.215Z,5.70
2022-11-26T04:25:33.810Z,5.70
2022-11-26T04:28:00.461Z,5.70
2022-11-26T04:30:28.916Z,5.70
2022-11-26T04:32:56.512Z,5.80
2022-11-26T04:35:23.084Z,5.80
2022-11-26T04:37:49.631Z,5.80
2022-11-26T04:40:16.227Z,5.80
2022-11-26T04:42:42.754Z,5.80
2022-11-26T04:45:10.161Z,5.70
2022-11-26T04:47:41.479Z,5.60
2022-11-26T04:50:10.138Z,5.60
2022-11-26T04:52:36.670Z,5.50
2022-11-26T04:55:03.233Z,5.50
2022-11-26T04:57:29.784Z,5.40
2022-11-26T04:59:56.338Z,5.40
2022-11-26T05:02:22.893Z,5.50
2022-11-26T05:04:49.771Z,5.50
2022-11-26T05:07:16.348Z,5.50
2022-11-26T05:09:43.444Z,5.50
2022-11-26T05:12:11.210Z,5.50
2022-11-26T05:14:38.082Z,5.50
2022-11-26T05:17:04.845Z,5.50
2022-11-26T05:19:31.408Z,5.50
2022-11-26T05:21:57.948Z,5.50
2022-11-26T05:24:24.504Z,5.40
2022-11-26T05:26:56.433Z,5.40
2022-11-26T05:29:23.587Z,5.40
2022-11-26T05:31:50.298Z,5.30
2022-11-26T05:34:16.886Z,5.20
2022-11-26T05:36:43.486Z,5.10
2022-11-26T05:39:10.055Z,5.10
2022-11-26T05:41:36.611Z,5.00
2022-11-26T05:44:03.185Z,5.00
2022-11-26T05:46:29.723Z,5.10
2022-11-26T05:48:56.247Z,5.10
2022-11-26T05:51:22.817Z,5.10
2022-11-26T05:53:49.362Z,5.20
2022-11-26T05:56:16.032Z,5.20
2022-11-26T05:58:42.903Z,5.20
2022-11-26T06:01:09.532Z,5.30
2022-11-26T06:03:36.549Z,5.30
2022-11-26T06:06:03.365Z,5.30
2022-11-26T06:08:29.912Z,5.40
2022-11-26T06:10:56.504Z,5.40
2022-11-26T06:13:23.046Z,5.40
2022-11-26T06:15:49.597Z,5.40
2022-11-26T06:18:16.235Z,5.30
2022-11-26T06:20:42.801Z,5.30
2022-11-26T06:23:09.364Z,5.20
2022-11-26T06:25:35.947Z,5.20
2022-11-26T06:28:02.561Z,5.10
2022-11-26T06:30:29.113Z,5.00
2022-11-26T06:32:55.688Z,5.00
2022-11-26T06:35:22.295Z,5.00
2022-11-26T06:37:48.849Z,4.90
2022-11-26T06:40:16.739Z,4.90
2022-11-26T06:42:47.156Z,4.90
2022-11-26T06:45:13.786Z,4.90
2022-11-26T06:47:40.325Z,5.00
2022-11-26T06:50:10.732Z,4.90
2022-11-26T06:52:37.574Z,4.90
2022-11-26T06:55:04.311Z,4.90
2022-11-26T06:57:30.868Z,4.90
2022-11-26T06:59:57.415Z,4.90
2022-11-26T07:02:23.996Z,5.00
2022-11-26T07:04:50.564Z,5.00
2022-11-26T07:07:17.135Z,5.00
2022-11-26T07:09:43.691Z,5.10
2022-11-26T07:12:10.260Z,5.10
2022-11-26T07:14:37.140Z,5.10
2022-11-26T07:17:04.015Z,5.10
2022-11-26T07:19:30.584Z,5.10
2022-11-26T07:21:57.141Z,5.10
2022-11-26T07:24:23.681Z,5.10
2022-11-26T07:26:50.856Z,5.00
2022-11-26T07:29:17.460Z,5.00
2022-11-26T07:31:44.043Z,5.00
2022-11-26T07:34:10.601Z,5.00
2022-11-26T07:36:42.765Z,5.00
2022-11-26T07:39:09.432Z,4.90
2022-11-26T07:41:35.989Z,4.90
2022-11-26T07:44:02.541Z,4.90
2022-11-26T07:46:29.227Z,4.90
2022-11-26T07:48:55.850Z,4.80
2022-11-26T07:51:23.502Z,4.80
2022-11-26T07:53:50.077Z,4.80
2022-11-26T07:56:16.773Z,4.80
2022-11-26T07:58:43.417Z,4.90
2022-11-26T08:01:10.530Z,4.90
2022-11-26T08:03:40.739Z,4.90
2022-11-26T08:06:08.186Z,4.90
2022-11-26T08:08:35.224Z,4.90
2022-11-26T08:11:05.193Z,4.90
2022-11-26T08:13:31.731Z,5.00
2022-11-26T08:15:58.347Z,5.10
2022-11-26T08:18:24.987Z,5.10
2022-11-26T08:20:57.661Z,5.10
2022-11-26T08:23:24.585Z,5.20
2022-11-26T08:26:20.441Z,5.20
2022-11-26T08:28:37.978Z,5.20
2022-11-26T08:31:05.407Z,5.30
2022-11-26T08:33:31.998Z,5.30
2022-11-26T08:36:07.116Z,5.20
2022-11-26T08:38:34.405Z,5.20
2022-11-26T08:41:01.461Z,5.20
2022-11-26T08:43:51.291Z,5.20
2022-11-26T08:46:14.590Z,5.20
2022-11-26T08:48:41.280Z,5.10
2022-11-26T08:51:09.500Z,5.20
2022-11-26T08:53:36.228Z,5.20
2022-11-26T08:56:03.559Z,5.30
2022-11-26T08:58:30.153Z,5.40
2022-11-26T09:00:56.788Z,5.50
2022-11-26T09:03:23.485Z,5.60
2022-11-26T09:05:50.115Z,5.70
2022-11-26T09:08:16.688Z,5.70
2022-11-26T09:10:43.237Z,5.70
2022-11-26T09:13:09.789Z,5.80
2022-11-26T09:15:36.976Z,5.90
2022-11-26T09:18:03.735Z,6.00
2022-11-26T09:20:30.378Z,6.20
2022-11-26T09:22:56.920Z,6.20
2022-11-26T09:25:23.475Z,6.30
2022-11-26T09:27:50.023Z,6.30
2022-11-26T09:30:16.654Z,6.50
2022-11-26T09:32:43.287Z,6.50
2022-11-26T09:35:09.840Z,6.60
2022-11-26T09:37:36.437Z,6.80
2022-11-26T09:40:03.463Z,6.90
2022-11-26T09:42:36.690Z,6.90
2022-11-26T09:45:18.780Z,7.00
2022-11-26T09:47:46.361Z,7.30
2022-11-26T09:50:15.939Z,7.40
2022-11-26T09:53:01.493Z,7.60
2022-11-26T09:55:32.245Z,7.70
2022-11-26T09:58:20.956Z,7.80
2022-11-26T10:00:51.260Z,7.90
2022-11-26T10:03:18.508Z,8.00
2022-11-26T10:05:58.449Z,8.10
2022-11-26T10:08:30.983Z,8.10
2022-11-26T10:11:03.627Z,8.00
2022-11-26T10:13:39.741Z,8.00
2022-11-26T10:16:21.130Z,8.10
2022-11-26T10:19:06.548Z,8.10
2022-11-26T10:22:02.256Z,8.20
2022-11-26T10:24:39.402Z,8.20
2022-11-26T10:27:13.258Z,8.40
2022-11-26T10:29:41.509Z,8.40
2022-11-26T10:32:17.239Z,8.30
2022-11-26T10:34:50.595Z,8.40
2022-11-26T10:37:17.660Z,8.40
2022-11-26T10:39:44.291Z,8.40
2022-11-26T10:42:13.524Z,8.30
2022-11-26T10:44:41.038Z,8.30
2022-11-26T10:47:27.514Z,8.20
2022-11-26T10:50:14.408Z,8.20
2022-11-26T10:52:49.590Z,8.10
2022-11-26T10:55:25.233Z,8.10
2022-11-26T10:57:55.569Z,8.10
2022-11-26T11:00:33.527Z,8.10
2022-11-26T11:03:00.238Z,8.10
2022-11-26T11:05:26.815Z,8.10
2022-11-26T11:07:54.823Z,8.10
2022-11-26T11:10:22.304Z,8.00
2022-11-26T11:12:50.090Z,8.00
2022-11-26T11:15:26.436Z,8.00
2022-11-26T11:17:58.124Z,8.10
2022-11-26T11:20:31.652Z,8.00
2022-11-26T11:23:18.285Z,7.90
2022-11-26T11:25:46.171Z,7.80
2022-11-26T11:28:12.799Z,7.70
2022-11-26T11:30:39.689Z,7.70
2022-11-26T11:33:25.786Z,7.90
2022-11-26T11:35:58.075Z,7.90
2022-11-26T11:38:25.092Z,8.00
2022-11-26T11:40:51.642Z,7.90
2022-11-26T11:43:19.706Z,8.00
2022-11-26T11:45:55.394Z,8.00
2022-11-26T11:48:43.372Z,8.00
2022-11-26T11:51:13.441Z,8.00
2022-11-26T11:53:39.986Z,8.10
2022-11-26T11:56:25.548Z,8.10
2022-11-26T11:59:01.269Z,8.00
2022-11-26T12:01:33.862Z,8.00
2022-11-26T12:04:06.133Z,8.00
2022-11-26T12:06:41.821Z,8.20
2022-11-26T12:09:11.556Z,8.20
2022-11-26T12:11:41.214Z,8.40
2022-11-26T12:14:28.001Z,8.40
2022-11-26T12:16:56.146Z,8.30
2022-11-26T12:19:41.574Z,8.50
2022-11-26T12:22:17.451Z,8.60
2022-11-26T12:24:45.785Z,8.50
2022-11-26T12:27:23.218Z,8.50
2022-11-26T12:29:56.638Z,8.50
2022-11-26T12:32:36.476Z,8.40
2022-11-26T12:35:04.881Z,8.30
2022-11-26T12:37:32.604Z,8.40
2022-11-26T12:40:10.355Z,8.50
2022-11-26T12:42:41.956Z,8.60
2022-11-26T12:45:31.713Z,8.60
2022-11-26T12:47:59.768Z,8.40
2022-11-26T12:50:29.296Z,8.30
2022-11-26T12:53:17.528Z,8.30
2022-11-26T12:55:44.155Z,8.20
2022-11-26T12:58:14.215Z,8.10
2022-11-26T13:00:40.829Z,8.00
2022-11-26T13:03:10.488Z,8.10
2022-11-26T13:05:51.385Z,8.10
2022-11-26T13:08:24.692Z,8.10
2022-11-26T13:11:02.993Z,8.00
2022-11-26T13:13:38.943Z,8.00
2022-11-26T13:16:05.537Z,7.90
2022-11-26T13:18:39.156Z,7.90
2022-11-26T13:21:32.144Z,7.80
2022-11-26T13:24:01.514Z,7.80
2022-11-26T13:26:46.927Z,7.70
2022-11-26T13:29:13.580Z,7.70
2022-11-26T13:31:59.171Z,7.60
2022-11-26T13:34:28.514Z,7.60
2022-11-26T13:37:10.289Z,7.50
2022-11-26T13:39:55.624Z,7.50
2022-11-26T13:42:29.179Z,7.50
2022-11-26T13:44:59.270Z,7.50
2022-11-26T13:47:30.254Z,7.50
2022-11-26T13:50:07.458Z,7.40
2022-11-26T13:52:38.784Z,7.50
2022-11-26T13:55:14.936Z,7.50
2022-11-26T13:57:42.869Z,7.50
2022-11-26T14:00:09.981Z,7.50
2022-11-26T14:02:37.959Z,7.50
2022-11-26T14:05:05.538Z,7.50
2022-11-26T14:07:32.276Z,7.50
2022-11-26T14:10:00.661Z,7.50
2022-11-26T14:12:46.069Z,7.40
2022-11-26T14:15:41.919Z,7.40
2022-11-26T14:18:08.886Z,7.30
2022-11-26T14:20:53.998Z,7.30
2022-11-26T14:23:39.333Z,7.30
2022-11-26T14:26:06.564Z,7.20
2022-11-26T14:28:33.115Z,7.10
2022-11-26T14:31:23.029Z,7.10
2022-11-26T14:33:49.952Z,7.00
2022-11-26T14:36:21.371Z,6.90
2022-11-26T14:39:02.672Z,6.80
2022-11-26T14:41:36.014Z,6.80
2022-11-26T14:44:05.942Z,6.70
2022-11-26T14:46:32.620Z,6.60
2022-11-26T14:49:00.124Z,6.60
2022-11-26T14:51:26.735Z,6.50
2022-11-26T14:53:53.312Z,6.50
2022-11-26T14:56:19.928Z,6.50
2022-11-26T14:58:47.189Z,6.40
2022-11-26T15:01:18.800Z,6.30
2022-11-26T15:03:58.875Z,6.20
2022-11-26T15:06:27.205Z,6.20
2022-11-26T15:09:03.999Z,6.10
2022-11-26T15:11:30.539Z,6.10
2022-11-26T15:13:57.098Z,6.10
2022-11-26T15:16:28.056Z,6.10
2022-11-26T15:18:54.712Z,6.10
2022-11-26T15:21:22.950Z,6.00
2022-11-26T15:23:49.591Z,6.00
2022-11-26T15:26:19.472Z,6.00
2022-11-26T15:28:46.025Z,5.90
2022-11-26T15:31:12.621Z,5.90
2022-11-26T15:33:39.301Z,5.90
2022-11-26T15:36:06.154Z,5.90
2022-11-26T15:38:33.385Z,5.80
2022-11-26T15:41:02.964Z,5.80
2022-11-26T15:43:30.949Z,5.80
2022-11-26T15:45:58.699Z,5.70
2022-11-26T15:48:44.061Z,5.70
2022-11-26T15:51:14.095Z,5.70
2022-11-26T15:53:44.090Z,5.70
2022-11-26T15:56:10.624Z,5.70
2022-11-26T15:58:37.706Z,5.70
2022-11-26T16:01:05.112Z,5.60
2022-11-26T16:03:35.961Z,5.60
2022-11-26T16:06:04.929Z,5.60
2022-11-26T16:08:31.861Z,5.60
2022-11-26T16:11:04.545Z,5.60
2022-11-26T16:13:31.604Z,5.60
2022-11-26T16:16:04.292Z,5.60
2022-11-26T16:18:37.941Z,5.50
2022-11-26T16:21:05.656Z,5.50
2022-11-26T16:23:32.300Z,5.50
2022-11-26T16:26:12.295Z,5.60
2022-11-26T16:28:38.963Z,5.70
2022-11-26T16:31:05.576Z,5.70
2022-11-26T16:33:32.212Z,5.80
2022-11-26T16:35:58.910Z,5.80
2022-11-26T16:38:25.887Z,5.80
2022-11-26T16:40:52.699Z,5.80
2022-11-26T16:43:19.296Z,5.80
2022-11-26T16:45:46.359Z,5.80
2022-11-26T16:48:21.539Z,5.70
2022-11-26T16:50:48.120Z,5.70
2022-11-26T16:53:14.745Z,5.80
2022-11-26T16:55:41.288Z,5.90
2022-11-26T16:58:09.668Z,6.00
2022-11-26T17:00:36.208Z,6.00
2022-11-26T17:03:02.909Z,6.10
2022-11-26T17:05:29.538Z,6.10
2022-11-26T17:07:57.014Z,6.20
2022-11-26T17:10:24.532Z,6.20
2022-11-26T17:12:51.096Z,6.20
2022-11-26T17:15:17.879Z,6.30
2022-11-26T17:17:44.488Z,6.30
2022-11-26T17:20:18.005Z,6.30
2022-11-26T17:22:45.354Z,6.30
2022-11-26T17:25:12.051Z,6.40
2022-11-26T17:27:38.888Z,6.40
2022-11-26T17:30:05.870Z,6.40
2022-11-26T17:32:32.416Z,6.30
2022-11-26T17:34:58.966Z,6.40
2022-11-26T17:37:29.105Z,6.40
2022-11-26T17:39:56.083Z,6.40
2022-11-26T17:42:23.774Z,6.30
2022-11-26T17:44:50.735Z,6.30
2022-11-26T17:47:18.406Z,6.30
2022-11-26T17:49:45.539Z,6.20
2022-11-26T17:52:12.096Z,6.20
2022-11-26T17:54:38.644Z,6.20
2022-11-26T17:57:05.198Z,6.20
2022-11-26T17:59:31.751Z,6.10
2022-11-26T18:01:58.423Z,6.00
2022-11-26T18:04:25.002Z,6.00
2022-11-26T18:06:54.263Z,6.00
2022-11-26T18:09:20.828Z,6.00
2022-11-26T18:11:49.516Z,6.00
2022-11-26T18:14:16.292Z,6.00
2022-11-26T18:16:42.920Z,5.90
2022-11-26T18:19:09.846Z,6.00
2022-11-26T18:21:36.654Z,5.90
2022-11-26T18:24:03.628Z,5.90
2022-11-26T18:26:30.203Z,5.90
2022-11-26T18:28:56.750Z,5.90
2022-11-26T18:31:23.557Z,5.90
2022-11-26T18:33:50.235Z,5.90
2022-11-26T18:36:16.778Z,5.90
2022-11-26T18:38:43.365Z,5.90
2022-11-26T18:41:09.908Z,5.90
2022-11-26T18:43:36.953Z,5.90
2022-11-26T18:46:06.679Z,6.00
2022-11-26T18:48:33.620Z,5.90
2022-11-26T18:51:00.150Z,6.00
2022-11-26T18:53:26.734Z,5.90
2022-11-26T18:55:53.360Z,5.90
2022-11-26T18:58:21.093Z,6.00
2022-11-26T19:00:48.083Z,6.00
2022-11-26T19:03:14.825Z,6.00
2022-11-26T19:05:44.387Z,5.90
2022-11-26T19:08:11.181Z,5.90
2022-11-26T19:10:37.782Z,5.90
2022-11-26T19:13:04.318Z,5.90
2022-11-26T19:15:30.866Z,5.90
2022-11-26T19:17:57.398Z,5.90
2022-11-26T19:20:23.983Z,5.90
2022-11-26T19:22:50.528Z,5.90
2022-11-26T19:25:17.112Z,5.90
2022-11-26T19:27:43.814Z,5.80
2022-11-26T19:30:10.641Z,5.90
2022-11-26T19:32:37.217Z,5.90
2022-11-26T19:35:06.019Z,5.90
2022-11-26T19:37:33.098Z,5.90
2022-11-26T19:39:59.680Z,5.90
2022-11-26T19:42:26.224Z,5.90
2022-11-26T19:44:52.780Z,5.90
2022-11-26T19:47:21.682Z,5.90
2022-11-26T19:49:48.609Z,5.90
2022-11-26T19:52:15.192Z,5.90
2022-11-26T19:54:41.743Z,5.90
2022-11-26T19:57:08.298Z,5.90
2022-11-26T19:59:34.851Z,5.90
2022-11-26T20:02:01.584Z,5.90
2022-11-26T20:04:29.552Z,5.90
2022-11-26T20:06:56.142Z,5.90
2022-11-26T20:09:22.945Z,5.90
2022-11-26T20:11:49.489Z,5.90
2022-11-26T20:14:16.060Z,5.90
2022-11-26T20:16:43.136Z,5.90
2022-11-26T20:19:09.875Z,5.90
2022-11-26T20:21:36.438Z,6.00
2022-11-26T20:24:04.220Z,6.00
2022-11-26T20:26:37.699Z,6.00
2022-11-26T20:29:07.888Z,5.90
2022-11-26T20:31:34.675Z,6.00
2022-11-26T20:34:02.123Z,6.00
2022-11-26T20:36:28.724Z,6.00
2022-11-26T20:38:55.939Z,6.00
2022-11-26T20:41:22.697Z,6.00
2022-11-26T20:43:55.092Z,6.00
2022-11-26T20:46:24.952Z,5.90
2022-11-26T20:48:51.508Z,5.90
2022-11-26T20:51:18.362Z,5.80
2022-11-26T20:53:50.024Z,5.90
2022-11-26T20:56:17.001Z,5.80
2022-11-26T20:58:43.610Z,5.80
2022-11-26T21:01:17.164Z,5.80
2022-11-26T21:03:43.887Z,5.80
2022-11-26T21:06:10.760Z,5.80
2022-11-26T21:08:37.344Z,5.80
2022-11-26T21:11:04.489Z,5.80
2022-11-26T21:13:31.247Z,5.70
2022-11-26T21:15:57.804Z,5.70
2022-11-26T21:18:24.348Z,5.80
2022-11-26T21:20:50.992Z,5.80
2022-11-26T21:23:17.612Z,5.80
2022-11-26T21:25:44.254Z,5.80
2022-11-26T21:28:11.254Z,5.80
2022-11-26T21:30:37.894Z,5.80
2022-11-26T21:33:08.958Z,5.80
2022-11-26T21:35:36.342Z,5.80
2022-11-26T21:38:02.973Z,5.80
2022-11-26T21:40:29.544Z,5.80
2022-11-26T21:42:56.129Z,5.90
2022-11-26T21:45:22.858Z,5.80
2022-11-26T21:47:52.513Z,5.80
2022-11-26T21:50:19.268Z,5.80
2022-11-26T21:52:45.850Z,5.80
2022-11-26T21:55:12.411Z,5.90
2022-11-26T21:57:38.988Z,5.90
2022-11-26T22:00:05.935Z,5.90
2022-11-26T22:02:32.579Z,5.90
2022-11-26T22:04:59.176Z,5.90
2022-11-26T22:07:25.837Z,5.90
2022-11-26T22:09:52.733Z,5.90
2022-11-26T22:12:19.267Z,5.90
2022-11-26T22:14:45.816Z,5.90
2022-11-26T22:17:12.356Z,5.90
2022-11-26T22:19:39.209Z,5.90
2022-11-26T22:22:05.985Z,5.90
2022-11-26T22:24:32.559Z,5.80
2022-11-26T22:26:59.378Z,5.90
2022-11-26T22:29:26.069Z,5.80
2022-11-26T22:31:52.728Z,5.80
2022-11-26T22:34:21.806Z,5.80
2022-11-26T22:36:48.376Z,5.80
2022-11-26T22:39:16.379Z,5.80
2022-11-26T22:41:43.211Z,5.80
2022-11-26T22:44:09.929Z,5.80
2022-11-26T22:46:38.135Z,5.70
2022-11-26T22:49:04.837Z,5.70
2022-11-26T22:51:31.989Z,5.70
2022-11-26T22:53:59.184Z,5.70
2022-11-26T22:56:25.795Z,5.70
2022-11-26T22:58:52.431Z,5.70
2022-11-26T23:01:22.917Z,5.70
2022-11-26T23:03:49.552Z,5.70
2022-11-26T23:06:16.394Z,5.70
2022-11-26T23:08:43.022Z,5.70
2022-11-26T23:11:10.351Z,5.70
2022-11-26T23:13:37.083Z,5.60
2022-11-26T23:16:06.173Z,5.60
2022-11-26T23:18:32.790Z,5.60
2022-11-26T23:21:25.698Z,5.70
2022-11-26T23:23:52.248Z,5.70
2022-11-26T23:26:26.445Z,5.70
2022-11-26T23:28:54.051Z,5.70
2022-11-26T23:31:21.431Z,5.70
2022-11-26T23:33:48.031Z,5.60
2022-11-26T23:36:14.733Z,5.60
2022-11-26T23:38:41.279Z,5.60
2022-11-26T23:41:08.063Z,5.60
2022-11-26T23:43:35.008Z,5.60
2022-11-26T23:46:02.207Z,5.60
2022-11-26T23:48:28.814Z,5.60
2022-11-26T23:50:55.368Z,5.60
2022-11-26T23:53:21.916Z,5.60
2022-11-26T23:55:48.902Z,5.60
2022-11-26T23:58:15.947Z,5.60
